createdAt,value
2022-12-26T00:00:37.591Z,99945.47
2022-12-26T00:01:43.831Z,99948.78
2022-12-26T00:02:46.127Z,99956.50
2022-12-26T00:03:50.818Z,99947.97
2022-12-26T00:04:55.955Z,99944.13
2022-12-26T00:05:58.280Z,99958.72
2022-12-26T00:07:00.488Z,99958.72
2022-12-26T00:08:03.130Z,99957.66
2022-12-26T00:09:06.714Z,99970.34
2022-12-26T00:10:08.956Z,99961.81
2022-12-26T00:11:11.867Z,99964.28
2022-12-26T00:12:14.160Z,99969.53
2022-12-26T00:13:37.134Z,99954.09
2022-12-26T00:14:39.218Z,99959.59
2022-12-26T00:15:41.999Z,99962.94
2022-12-26T00:16:45.994Z,99966.50
2022-12-26T00:17:48.243Z,99966.28
2022-12-26T00:18:51.099Z,99963.75
2022-12-26T00:19:56.307Z,99965.16
2022-12-26T00:20:58.463Z,99967.91
2022-12-26T00:22:00.858Z,99961.31
2022-12-26T00:23:03.115Z,99966.81
2022-12-26T00:24:05.905Z,99971.25
2022-12-26T00:25:08.429Z,99972.06
2022-12-26T00:26:13.832Z,99979.25
2022-12-26T00:27:15.995Z,99980.09
2022-12-26T00:28:18.150Z,99971.56
2022-12-26T00:29:20.315Z,99976.22
2022-12-26T00:30:22.497Z,99975.13
2022-12-26T00:31:27.386Z,99980.38
2022-12-26T00:32:29.623Z,99975.72
2022-12-26T00:33:31.828Z,99971.88
2022-12-26T00:34:34.002Z,99964.41
2022-12-26T00:35:36.184Z,99961.66
2022-12-26T00:36:38.363Z,99967.75
2022-12-26T00:37:40.794Z,99969.66
2022-12-26T00:38:43.880Z,99964.16
2022-12-26T00:39:46.052Z,99970.25
2022-12-26T00:40:48.235Z,99974.63
2022-12-26T00:41:50.496Z,99971.88
2022-12-26T00:42:52.673Z,99966.38
2022-12-26T00:43:56.259Z,99956.19
2022-12-26T00:44:59.630Z,99966.13
2022-12-26T00:46:02.593Z,99962.53
2022-12-26T00:47:04.807Z,99970.78
2022-12-26T00:48:07.003Z,99962.25
2022-12-26T00:49:09.270Z,99949.31
2022-12-26T00:50:15.698Z,99950.13
2022-12-26T00:51:18.518Z,99949.03
2022-12-26T00:52:20.692Z,99945.19
2022-12-26T00:53:23.577Z,99953.47
2022-12-26T00:54:25.739Z,99957.91
2022-12-26T00:55:27.911Z,99961.75
2022-12-26T00:56:32.373Z,99961.75
2022-12-26T00:57:34.558Z,99949.63
2022-12-26T00:58:37.253Z,99944.91
2022-12-26T00:59:39.402Z,99942.75
2022-12-26T01:00:41.846Z,99941.06
2022-12-26T01:01:44.344Z,99949.34
2022-12-26T01:02:46.974Z,99951.00
2022-12-26T01:03:50.081Z,99942.97
2022-12-26T01:04:54.715Z,99939.13
2022-12-26T01:05:57.141Z,99947.41
2022-12-26T01:07:00.176Z,99947.13
2022-12-26T01:08:22.443Z,99960.94
2022-12-26T01:09:24.506Z,99958.16
2022-12-26T01:10:28.304Z,99960.69
2022-12-26T01:11:42.525Z,99960.69
2022-12-26T01:12:44.855Z,99962.59
2022-12-26T01:13:47.036Z,99955.41
2022-12-26T01:14:49.185Z,99968.13
2022-12-26T01:15:55.371Z,99962.59
2022-12-26T01:16:57.600Z,99961.50
2022-12-26T01:18:00.953Z,99967.28
2022-12-26T01:19:05.403Z,99959.84
2022-12-26T01:20:08.601Z,99953.50
2022-12-26T01:21:11.336Z,99950.75
2022-12-26T01:22:13.546Z,99961.78
2022-12-26T01:23:16.811Z,99961.78
2022-12-26T01:24:18.999Z,99959.84
2022-12-26T01:25:26.931Z,99963.44
2022-12-26T01:26:29.155Z,99960.69
2022-12-26T01:27:31.367Z,99966.22
2022-12-26T01:28:33.711Z,99963.44
2022-12-26T01:29:38.530Z,99966.22
2022-12-26T01:30:40.722Z,99957.09
2022-12-26T01:31:42.996Z,99954.06
2022-12-26T01:32:45.287Z,99948.00
2022-12-26T01:33:48.216Z,99959.84
2022-12-26T01:34:52.589Z,99953.50
2022-12-26T01:35:54.858Z,99960.94
2022-12-26T01:36:57.122Z,99958.16
2022-12-26T01:37:59.355Z,99948.00
2022-12-26T01:39:01.608Z,99947.13
2022-12-26T01:40:07.644Z,99952.41
2022-12-26T01:41:17.535Z,99960.09
2022-12-26T01:42:23.262Z,99958.16
2022-12-26T01:43:26.203Z,99957.34
2022-12-26T01:44:54.855Z,99962.06
2022-12-26T01:45:57.052Z,99956.53
2022-12-26T01:46:59.262Z,99963.97
2022-12-26T01:48:06.175Z,99955.69
2022-12-26T01:49:35.882Z,99952.94
2022-12-26T01:50:38.003Z,99946.84
2022-12-26T01:51:45.265Z,99950.44
2022-12-26T01:52:48.580Z,99951.53
2022-12-26T01:53:54.852Z,99956.22
2022-12-26T01:55:20.277Z,99962.56
2022-12-26T01:56:37.314Z,99967.25
2022-12-26T01:57:44.381Z,99964.78
2022-12-26T01:58:53.486Z,99958.41
2022-12-26T01:59:58.410Z,99960.34
2022-12-26T02:01:04.205Z,99952.06
2022-12-26T02:02:06.937Z,99962.25
2022-12-26T02:03:28.786Z,99960.34
2022-12-26T02:04:55.402Z,99967.75
2022-12-26T02:06:00.151Z,99972.47
2022-12-26T02:07:04.278Z,99963.91
2022-12-26T02:08:12.176Z,99961.16
2022-12-26T02:09:14.380Z,99960.06
2022-12-26T02:10:23.686Z,99960.06
2022-12-26T02:11:48.806Z,99959.81
2022-12-26T02:13:19.214Z,99958.72
2022-12-26T02:14:25.347Z,99961.19
2022-12-26T02:15:28.138Z,99958.16
2022-12-26T02:16:30.390Z,99958.16
2022-12-26T02:17:32.618Z,99957.94
2022-12-26T02:18:35.253Z,99950.47
2022-12-26T02:19:46.350Z,99952.16
2022-12-26T02:21:10.058Z,99948.84
2022-12-26T02:22:40.421Z,99947.47
2022-12-26T02:24:04.489Z,99947.22
2022-12-26T02:25:29.733Z,99944.19
2022-12-26T02:26:52.053Z,99938.41
2022-12-26T02:28:22.127Z,99940.91
2022-12-26T02:29:45.991Z,99937.88
2022-12-26T02:31:04.107Z,99945.88
2022-12-26T02:32:20.139Z,99942.84
2022-12-26T02:33:49.286Z,99941.75
2022-12-26T02:35:19.392Z,99942.34
2022-12-26T02:36:46.534Z,99942.34
2022-12-26T02:38:07.531Z,99940.41
2022-12-26T02:39:45.386Z,99939.31
2022-12-26T02:41:29.066Z,99948.97
2022-12-26T02:42:50.222Z,99958.06
2022-12-26T02:43:58.590Z,99945.41
2022-12-26T02:45:41.453Z,99941.78
2022-12-26T02:47:03.711Z,99945.13
2022-12-26T02:48:38.009Z,99936.84
2022-12-26T02:50:22.906Z,99940.16
2022-12-26T02:51:49.778Z,99941.81
2022-12-26T02:53:26.412Z,99953.44
2022-12-26T02:55:01.199Z,99947.63
2022-12-26T02:56:34.064Z,99945.44
2022-12-26T02:58:04.576Z,99946.03
2022-12-26T03:00:03.135Z,99938.56
2022-12-26T03:01:30.403Z,99936.09
2022-12-26T03:03:04.971Z,99925.66
2022-12-26T03:04:31.420Z,99941.66
2022-12-26T03:06:00.273Z,99925.94
2022-12-26T03:07:28.914Z,99918.22
2022-12-26T03:08:55.649Z,99922.09
2022-12-26T03:10:20.859Z,99918.81
2022-12-26T03:11:49.278Z,99921.00
2022-12-26T03:13:11.918Z,99928.19
2022-12-26T03:14:44.871Z,99930.41
2022-12-26T03:16:18.028Z,99927.13
2022-12-26T03:17:31.644Z,99924.63
2022-12-26T03:18:57.814Z,99917.75
2022-12-26T03:20:10.421Z,99931.03
2022-12-26T03:21:17.803Z,99925.22
2022-12-26T03:22:31.890Z,99927.16
2022-12-26T03:23:38.308Z,99927.44
2022-12-26T03:25:00.610Z,99918.88
2022-12-26T03:26:27.914Z,99912.00
2022-12-26T03:27:30.160Z,99920.84
2022-12-26T03:28:32.413Z,99912.00
2022-12-26T03:29:57.705Z,99916.16
2022-12-26T03:31:04.387Z,99912.28
2022-12-26T03:32:10.291Z,99910.63
2022-12-26T03:33:30.989Z,99909.53
2022-12-26T03:34:37.540Z,99905.13
2022-12-26T03:35:42.312Z,99907.59
2022-12-26T03:37:16.475Z,99909.00
2022-12-26T03:38:22.832Z,99910.38
2022-12-26T03:40:23.342Z,99913.72
2022-12-26T03:42:02.388Z,99925.31
2022-12-26T03:43:34.081Z,99917.88
2022-12-26T03:45:13.951Z,99907.09
2022-12-26T03:47:04.165Z,99910.41
2022-12-26T03:48:40.777Z,99918.16
2022-12-26T03:50:11.718Z,99914.03
2022-12-26T03:52:05.980Z,99911.78
2022-12-26T03:53:39.577Z,99917.03
2022-12-26T03:55:09.458Z,99919.56
2022-12-26T03:56:38.830Z,99923.72
2022-12-26T03:58:12.812Z,99915.41
2022-12-26T03:59:38.558Z,99922.84
2022-12-26T04:01:01.957Z,99924.53
2022-12-26T04:02:27.994Z,99919.00
2022-12-26T04:03:51.663Z,99929.50
2022-12-26T04:05:18.102Z,99925.91
2022-12-26T04:06:47.699Z,99917.34
2022-12-26T04:08:18.433Z,99923.44
2022-12-26T04:09:53.961Z,99925.91
2022-12-26T04:11:18.100Z,99926.44
2022-12-26T04:12:50.500Z,99920.66
2022-12-26T04:15:04.983Z,99926.44
2022-12-26T04:16:39.918Z,99931.44
2022-12-26T04:18:24.877Z,99938.66
2022-12-26T04:19:27.135Z,99935.63
2022-12-26T04:20:47.829Z,99942.81
2022-12-26T04:22:31.234Z,99934.53
2022-12-26T04:24:01.877Z,99942.53
2022-12-26T04:25:51.771Z,99943.34
2022-12-26T04:27:18.182Z,99939.50
2022-12-26T04:28:41.355Z,99953.03
2022-12-26T04:30:02.741Z,99955.81
2022-12-26T04:31:34.092Z,99928.97
2022-12-26T04:33:04.931Z,99956.63
2022-12-26T04:34:34.715Z,99959.13
2022-12-26T04:35:58.814Z,99951.66
2022-12-26T04:37:28.041Z,99951.38
2022-12-26T04:38:57.508Z,99946.69
2022-12-26T04:40:21.506Z,99950.28
2022-12-26T04:41:44.876Z,99946.41
2022-12-26T04:43:50.051Z,99948.88
2022-12-26T04:44:33.787Z,99945.31
2022-12-26T04:45:36.367Z,99956.09
2022-12-26T04:46:48.154Z,99949.72
2022-12-26T04:48:17.396Z,99939.50
2022-12-26T04:49:38.584Z,99945.84
2022-12-26T04:50:52.169Z,99949.16
2022-12-26T04:51:59.451Z,99951.94
2022-12-26T04:53:01.826Z,99949.72
2022-12-26T04:54:05.042Z,99954.13
2022-12-26T04:55:07.767Z,99945.56
2022-12-26T04:56:11.105Z,99942.78
2022-12-26T04:57:13.277Z,99949.16
2022-12-26T04:58:15.829Z,99950.00
2022-12-26T04:59:20.124Z,99953.84
2022-12-26T05:00:44.697Z,99953.03
2022-12-26T05:02:07.105Z,99932.28
2022-12-26T05:03:33.241Z,99940.59
2022-12-26T05:05:05.694Z,99949.69
2022-12-26T05:06:27.931Z,99951.09
2022-12-26T05:07:55.935Z,99944.72
2022-12-26T05:09:16.748Z,99946.41
2022-12-26T05:10:24.160Z,99944.44
2022-12-26T05:11:27.763Z,99948.03
2022-12-26T05:12:30.043Z,99938.09
2022-12-26T05:13:32.338Z,99938.09
2022-12-26T05:14:36.121Z,99939.72
2022-12-26T05:15:57.218Z,99938.63
2022-12-26T05:17:18.516Z,99940.59
2022-12-26T05:18:39.505Z,99946.13
2022-12-26T05:20:00.730Z,99942.25
2022-12-26T05:21:23.178Z,99939.19
2022-12-26T05:22:47.357Z,99942.25
2022-12-26T05:24:07.963Z,99952.19
2022-12-26T05:25:37.829Z,99946.66
2022-12-26T05:26:58.633Z,99937.25
2022-12-26T05:28:19.458Z,99936.97
2022-12-26T05:29:21.665Z,99938.34
2022-12-26T05:30:24.719Z,99928.13
2022-12-26T05:31:32.980Z,99929.78
2022-12-26T05:32:56.429Z,99930.91
2022-12-26T05:34:27.232Z,99937.25
2022-12-26T05:35:29.488Z,99945.53
2022-12-26T05:36:44.771Z,99951.66
2022-12-26T05:37:47.005Z,99954.41
2022-12-26T05:38:49.366Z,99953.31
2022-12-26T05:39:51.528Z,99950.53
2022-12-26T05:40:56.767Z,99949.69
2022-12-26T05:41:58.974Z,99958.84
2022-12-26T05:43:01.177Z,99943.34
2022-12-26T05:44:03.722Z,99951.66
2022-12-26T05:45:06.601Z,99945.25
2022-12-26T05:46:08.897Z,99937.81
2022-12-26T05:47:11.181Z,99950.78
2022-12-26T05:48:14.427Z,99946.09
2022-12-26T05:49:16.858Z,99946.94
2022-12-26T05:50:19.289Z,99942.50
2022-12-26T05:51:21.570Z,99933.09
2022-12-26T05:52:23.885Z,99939.47
2022-12-26T05:53:27.624Z,99940.28
2022-12-26T05:54:29.764Z,99929.22
2022-12-26T05:55:31.956Z,99950.25
2022-12-26T05:56:34.111Z,99941.09
2022-12-26T05:57:36.338Z,99941.09
2022-12-26T05:58:39.450Z,99940.00
2022-12-26T05:59:41.647Z,99940.00
2022-12-26T06:00:43.816Z,99947.22
2022-12-26T06:01:46.146Z,99942.50
2022-12-26T06:02:48.912Z,99938.91
2022-12-26T06:03:54.150Z,99923.97
2022-12-26T06:04:56.332Z,99927.84
2022-12-26T06:05:58.623Z,99942.50
2022-12-26T06:07:00.784Z,99945.00
2022-12-26T06:08:03.337Z,99937.53
2022-12-26T06:09:05.512Z,99936.69
2022-12-26T06:10:09.817Z,99940.28
2022-12-26T06:11:13.390Z,99930.88
2022-12-26T06:12:15.568Z,99939.19
2022-12-26T06:13:17.736Z,99938.09
2022-12-26T06:14:19.895Z,99938.34
2022-12-26T06:15:22.909Z,99928.94
2022-12-26T06:16:25.227Z,99924.50
2022-12-26T06:17:27.415Z,99926.16
2022-12-26T06:18:29.603Z,99924.25
2022-12-26T06:19:34.285Z,99936.94
2022-12-26T06:20:39.132Z,99925.88
2022-12-26T06:21:41.509Z,99931.41
2022-12-26T06:22:43.731Z,99922.00
2022-12-26T06:23:46.109Z,99920.09
2022-12-26T06:24:48.329Z,99914.56
2022-12-26T06:25:58.006Z,99912.59
2022-12-26T06:27:00.200Z,99914.56
2022-12-26T06:28:03.464Z,99913.41
2022-12-26T06:29:05.658Z,99917.31
2022-12-26T06:30:09.766Z,99924.50
2022-12-26T06:31:14.801Z,99931.97
2022-12-26T06:32:17.146Z,99933.06
2022-12-26T06:33:20.172Z,99915.94
2022-12-26T06:34:23.839Z,99912.88
2022-12-26T06:35:26.631Z,99919.22
2022-12-26T06:36:29.975Z,99920.06
2022-12-26T06:37:33.483Z,99938.88
2022-12-26T06:38:36.268Z,99942.22
2022-12-26T06:39:38.493Z,99938.88
2022-12-26T06:40:41.414Z,99934.16
2022-12-26T06:41:43.625Z,99938.59
2022-12-26T06:42:45.813Z,99939.44
2022-12-26T06:43:50.047Z,99939.72
2022-12-26T06:44:52.352Z,99938.88
2022-12-26T06:46:00.788Z,99934.16
2022-12-26T06:47:03.411Z,99948.56
2022-12-26T06:48:05.845Z,99941.09
2022-12-26T06:49:08.020Z,99957.69
2022-12-26T06:50:10.289Z,99959.66
2022-12-26T06:51:15.463Z,99976.25
2022-12-26T06:52:17.708Z,99969.03
2022-12-26T06:53:22.198Z,99960.47
2022-12-26T06:54:24.406Z,99967.13
2022-12-26T06:55:26.581Z,99967.13
2022-12-26T06:56:29.905Z,99956.88
2022-12-26T06:57:32.157Z,99976.25
2022-12-26T06:58:36.581Z,99959.66
2022-12-26T06:59:38.725Z,99975.44
2022-12-26T07:00:40.954Z,99974.31
2022-12-26T07:01:43.327Z,99981.78
2022-12-26T07:02:49.861Z,99981.22
2022-12-26T07:03:54.199Z,99974.59
2022-12-26T07:04:56.404Z,99980.13
2022-12-26T07:06:11.590Z,99981.50
2022-12-26T07:07:13.760Z,99977.63
2022-12-26T07:08:15.936Z,99982.88
2022-12-26T07:09:19.171Z,99981.50
2022-12-26T07:10:21.766Z,99980.69
2022-12-26T07:11:28.672Z,99983.47
2022-12-26T07:12:30.829Z,99978.75
2022-12-26T07:13:32.964Z,99984.00
2022-12-26T07:14:35.143Z,99984.28
2022-12-26T07:15:37.679Z,99982.34
2022-12-26T07:16:42.628Z,99984.00
2022-12-26T07:17:44.887Z,99993.97
2022-12-26T07:18:47.089Z,99991.19
2022-12-26T07:19:49.257Z,99998.97
2022-12-26T07:20:51.463Z,100004.75
2022-12-26T07:21:53.640Z,100004.75
2022-12-26T07:22:56.281Z,99992.88
2022-12-26T07:23:58.849Z,99994.53
2022-12-26T07:25:01.160Z,99991.47
2022-12-26T07:26:03.913Z,99995.91
2022-12-26T07:27:06.104Z,99997.56
2022-12-26T07:28:08.418Z,100000.06
2022-12-26T07:29:12.171Z,100004.75
2022-12-26T07:30:14.441Z,100001.16
2022-12-26T07:31:18.674Z,99992.84
2022-12-26T07:32:21.028Z,99993.69
2022-12-26T07:33:23.991Z,99989.81
2022-12-26T07:34:31.375Z,99986.22
2022-12-26T07:35:35.429Z,100003.66
2022-12-26T07:36:37.682Z,99996.44
2022-12-26T07:37:39.885Z,100001.69
2022-12-26T07:38:42.113Z,100000.88
2022-12-26T07:39:45.464Z,100001.69
2022-12-26T07:40:47.668Z,100001.97
2022-12-26T07:41:58.860Z,100000.88
2022-12-26T07:43:01.126Z,100001.69
2022-12-26T07:44:03.718Z,99997.81
2022-12-26T07:45:06.515Z,99989.25
2022-12-26T07:46:08.706Z,99990.63
2022-12-26T07:47:10.930Z,99989.00
2022-12-26T07:48:13.213Z,99999.78
2022-12-26T07:49:15.504Z,100004.75
2022-12-26T07:50:17.658Z,100005.59
2022-12-26T07:51:19.833Z,100008.91
2022-12-26T07:52:23.194Z,100013.63
2022-12-26T07:53:26.410Z,100009.19
2022-12-26T07:54:30.156Z,100014.72
2022-12-26T07:55:32.412Z,100012.53
2022-12-26T07:56:34.832Z,100018.06
2022-12-26T07:57:52.311Z,100023.31
2022-12-26T07:58:54.800Z,100018.59
2022-12-26T07:59:57.191Z,100011.13
2022-12-26T08:01:04.373Z,100009.19
2022-12-26T08:02:10.352Z,100005.31
2022-12-26T08:03:13.891Z,100013.34
2022-12-26T08:04:16.119Z,100024.41
2022-12-26T08:05:21.393Z,100025.22
2022-12-26T08:06:23.862Z,100019.44
2022-12-26T08:07:26.334Z,100011.94
2022-12-26T08:08:28.799Z,100006.41
2022-12-26T08:09:32.023Z,100005.31
2022-12-26T08:10:34.287Z,99997.00
2022-12-26T08:11:36.680Z,100007.78
2022-12-26T08:12:38.953Z,100009.47
2022-12-26T08:13:41.874Z,100015.00
2022-12-26T08:14:44.007Z,100021.34
2022-12-26T08:15:48.691Z,100024.97
2022-12-26T08:16:53.374Z,100026.59
2022-12-26T08:17:56.280Z,100029.38
2022-12-26T08:18:58.592Z,100021.06
2022-12-26T08:20:00.809Z,100034.66
2022-12-26T08:21:03.167Z,100021.34
2022-12-26T08:22:05.785Z,100039.63
2022-12-26T08:23:08.059Z,100034.91
2022-12-26T08:24:10.287Z,100049.31
2022-12-26T08:25:15.539Z,100042.66
2022-12-26T08:26:23.480Z,100037.94
2022-12-26T08:27:25.657Z,100042.38
2022-12-26T08:28:27.867Z,100046.81
2022-12-26T08:29:30.156Z,100042.91
2022-12-26T08:30:32.363Z,100040.72
2022-12-26T08:31:36.759Z,100034.88
2022-12-26T08:32:42.413Z,100021.88
2022-12-26T08:33:47.184Z,100022.41
2022-12-26T08:34:50.021Z,100031.56
2022-12-26T08:35:52.268Z,100035.16
2022-12-26T08:36:54.444Z,100040.41
2022-12-26T08:37:56.641Z,100042.09
2022-12-26T08:38:59.246Z,100031.81
2022-12-26T08:40:01.495Z,100033.50
2022-12-26T08:41:04.004Z,100026.84
2022-12-26T08:42:06.174Z,100022.13
2022-12-26T08:44:30.510Z,100022.13
2022-12-26T08:45:33.608Z,100020.19
2022-12-26T08:46:38.476Z,100021.59
2022-12-26T08:47:40.744Z,100013.56
2022-12-26T08:48:44.485Z,100011.91
2022-12-26T08:49:46.646Z,100016.34
2022-12-26T08:50:48.874Z,100022.69
2022-12-26T08:51:52.131Z,100027.41
2022-12-26T08:52:54.277Z,100033.75
2022-12-26T08:53:56.537Z,100035.16
2022-12-26T08:54:58.714Z,100040.97
2022-12-26T08:56:00.940Z,100037.09
2022-12-26T08:57:03.130Z,100032.66
2022-12-26T08:58:05.300Z,100035.44
2022-12-26T08:59:07.540Z,100038.19
2022-12-26T09:00:10.633Z,100037.91
2022-12-26T09:01:21.845Z,100047.88
2022-12-26T09:02:26.058Z,100034.56
2022-12-26T09:03:28.605Z,100036.25
2022-12-26T09:04:30.768Z,100022.69
2022-12-26T09:05:32.963Z,100028.75
2022-12-26T09:06:37.641Z,100016.56
2022-12-26T09:07:39.914Z,100016.28
2022-12-26T09:08:42.881Z,100015.16
2022-12-26T09:09:45.281Z,100035.13
2022-12-26T09:10:47.508Z,100029.28
2022-12-26T09:11:50.491Z,100024.03
2022-12-26T09:12:55.469Z,100036.78
2022-12-26T09:14:01.407Z,100030.09
2022-12-26T09:15:03.865Z,100050.06
2022-12-26T09:16:22.079Z,100028.16
2022-12-26T09:17:26.786Z,100034.56
2022-12-26T09:18:29.707Z,100027.63
2022-12-26T09:19:32.711Z,100034.81
2022-12-26T09:20:36.382Z,100040.06
2022-12-26T09:21:46.682Z,100036.72
2022-12-26T09:22:51.581Z,100033.13
2022-12-26T09:24:02.122Z,100050.03
2022-12-26T09:25:04.798Z,100038.09
2022-12-26T09:26:13.085Z,100040.63
2022-12-26T09:27:15.445Z,100051.94
2022-12-26T09:28:17.966Z,100056.94
2022-12-26T09:29:20.164Z,100064.97
2022-12-26T09:30:23.315Z,100063.88
2022-12-26T09:31:29.461Z,100053.31
2022-12-26T09:32:35.829Z,100053.03
2022-12-26T09:33:39.020Z,100048.03
2022-12-26T09:34:41.241Z,100044.97
2022-12-26T09:35:44.660Z,100045.53
2022-12-26T09:36:47.033Z,100035.25
2022-12-26T09:37:49.199Z,100043.03
2022-12-26T09:38:52.021Z,100039.97
2022-12-26T09:39:54.375Z,100048.81
2022-12-26T09:41:42.860Z,100059.06
2022-12-26T09:43:04.920Z,100066.28
2022-12-26T09:44:40.449Z,100060.44
2022-12-26T09:45:59.854Z,100064.03
2022-12-26T09:47:27.273Z,100063.78
2022-12-26T09:48:45.893Z,100045.19
2022-12-26T09:49:53.728Z,100046.59
2022-12-26T09:50:55.959Z,100044.63
2022-12-26T09:52:03.573Z,100056.88
2022-12-26T09:53:27.657Z,100046.88
2022-12-26T09:54:38.296Z,100046.59
2022-12-26T09:56:00.294Z,100047.41
2022-12-26T09:57:13.191Z,100056.56
2022-12-26T09:58:41.511Z,100045.47
2022-12-26T09:59:51.792Z,100051.84
2022-12-26T10:01:01.874Z,100043.53
2022-12-26T10:02:04.683Z,100037.97
2022-12-26T10:03:10.371Z,100027.19
2022-12-26T10:04:30.035Z,100032.44
2022-12-26T10:05:41.172Z,100029.66
2022-12-26T10:07:15.520Z,100028.56
2022-12-26T10:08:51.463Z,100040.22
2022-12-26T10:10:17.385Z,100041.88
2022-12-26T10:11:58.429Z,100029.97
2022-12-26T10:13:32.949Z,100029.13
2022-12-26T10:14:57.176Z,100028.59
2022-12-26T10:16:07.405Z,100039.66
2022-12-26T10:17:34.327Z,100031.66
2022-12-26T10:19:03.361Z,100027.22
2022-12-26T10:20:24.447Z,100041.06
2022-12-26T10:21:32.397Z,100041.34
2022-12-26T10:23:12.479Z,100052.44
2022-12-26T10:24:22.233Z,100046.34
2022-12-26T10:25:47.477Z,100056.63
2022-12-26T10:26:55.828Z,100048.59
2022-12-26T10:27:58.406Z,100046.06
2022-12-26T10:29:09.762Z,100044.16
2022-12-26T10:30:31.922Z,100046.06
2022-12-26T10:32:27.508Z,100033.34
2022-12-26T10:33:44.365Z,100042.50
2022-12-26T10:34:49.672Z,100033.34
2022-12-26T10:35:52.290Z,100042.50
2022-12-26T10:37:00.310Z,100036.13
2022-12-26T10:38:13.756Z,100038.91
2022-12-26T10:39:27.943Z,100023.91
2022-12-26T10:40:41.074Z,100025.56
2022-12-26T10:41:49.039Z,100020.03
2022-12-26T10:42:57.619Z,100026.66
2022-12-26T10:44:00.035Z,100025.56
2022-12-26T10:45:16.957Z,100031.09
2022-12-26T10:46:25.493Z,100027.22
2022-12-26T10:47:34.969Z,100020.03
2022-12-26T10:48:37.439Z,100021.97
2022-12-26T10:49:39.769Z,100021.69
2022-12-26T10:50:48.960Z,100026.13
2022-12-26T10:51:54.536Z,100026.13
2022-12-26T10:53:03.572Z,100021.09
2022-12-26T10:54:14.742Z,100028.59
2022-12-26T10:55:29.719Z,100021.94
2022-12-26T10:56:34.096Z,100029.41
2022-12-26T10:57:37.190Z,100028.31
2022-12-26T10:58:41.319Z,100036.34
2022-12-26T10:59:49.805Z,100030.78
2022-12-26T11:00:52.269Z,100032.47
2022-12-26T11:01:54.527Z,100025.81
2022-12-26T11:03:22.905Z,100028.28
2022-12-26T11:04:53.259Z,100028.28
2022-12-26T11:06:07.696Z,100031.91
2022-12-26T11:07:12.225Z,100035.50
2022-12-26T11:08:25.881Z,100034.41
2022-12-26T11:09:28.037Z,100029.66
2022-12-26T11:10:30.279Z,100023.00
2022-12-26T11:11:47.967Z,100027.44
2022-12-26T11:12:55.576Z,100025.50
2022-12-26T11:14:02.540Z,100023.56
2022-12-26T11:15:34.079Z,100018.53
2022-12-26T11:16:39.701Z,100019.41
2022-12-26T11:17:45.121Z,100017.16
2022-12-26T11:18:49.485Z,100031.81
2022-12-26T11:20:29.537Z,100018.81
2022-12-26T11:21:33.127Z,100022.97
2022-12-26T11:22:35.399Z,100040.97
2022-12-26T11:23:37.650Z,100038.19
2022-12-26T11:24:39.997Z,100041.78
2022-12-26T11:25:53.684Z,100043.44
2022-12-26T11:27:20.502Z,100037.63
2022-12-26T11:28:30.280Z,100031.25
2022-12-26T11:29:32.489Z,100038.47
2022-12-26T11:30:38.703Z,100025.41
2022-12-26T11:31:44.255Z,100022.34
2022-12-26T11:32:51.060Z,100021.53
2022-12-26T11:33:54.076Z,100022.34
2022-12-26T11:34:56.437Z,100028.75
2022-12-26T11:36:05.765Z,100038.97
2022-12-26T11:37:31.386Z,100025.97
2022-12-26T11:38:45.688Z,100024.81
2022-12-26T11:39:51.503Z,100026.78
2022-12-26T11:41:14.017Z,100023.19
2022-12-26T11:42:21.190Z,100022.06
2022-12-26T11:43:23.701Z,100015.09
2022-12-26T11:44:36.169Z,100012.63
2022-12-26T11:45:43.791Z,99999.88
2022-12-26T11:46:54.597Z,100001.81
2022-12-26T11:48:00.510Z,100004.31
2022-12-26T11:49:03.548Z,99991.28
2022-12-26T11:50:19.253Z,99995.16
2022-12-26T11:51:43.100Z,99989.63
2022-12-26T11:52:55.751Z,99993.75
2022-12-26T11:54:21.750Z,99991.28
2022-12-26T11:55:29.880Z,99993.22
2022-12-26T11:56:32.204Z,100000.72
2022-12-26T11:57:34.495Z,100000.16
2022-12-26T11:58:36.749Z,100007.06
2022-12-26T11:59:41.080Z,100002.13
2022-12-26T12:01:06.181Z,100020.97
2022-12-26T12:02:28.381Z,100018.19
2022-12-26T12:03:49.184Z,100018.19
2022-12-26T12:04:55.556Z,100017.91
2022-12-26T12:06:15.584Z,100022.09
2022-12-26T12:07:50.673Z,100022.38
2022-12-26T12:09:25.681Z,100020.44
2022-12-26T12:11:05.297Z,100021.84
2022-12-26T12:12:46.662Z,100004.38
2022-12-26T12:14:10.519Z,100009.38
2022-12-26T12:15:28.806Z,100007.16
2022-12-26T12:16:56.132Z,100008.31
2022-12-26T12:18:19.861Z,99993.06
2022-12-26T12:19:52.472Z,100004.41
2022-12-26T12:21:22.397Z,99998.34
2022-12-26T12:22:48.152Z,100003.34
2022-12-26T12:24:15.157Z,100013.91
2022-12-26T12:25:37.980Z,100001.69
2022-12-26T12:26:54.974Z,99997.56
2022-12-26T12:28:29.909Z,99982.31
2022-12-26T12:29:32.079Z,99988.72
2022-12-26T12:30:59.219Z,99990.09
2022-12-26T12:32:31.437Z,99985.69
2022-12-26T12:34:08.600Z,99992.31
2022-12-26T12:35:13.695Z,99985.16
2022-12-26T12:36:49.991Z,99991.78
2022-12-26T12:38:17.092Z,99999.25
2022-12-26T12:39:39.695Z,99997.06
2022-12-26T12:41:03.989Z,99998.75
2022-12-26T12:42:18.204Z,99999.84
2022-12-26T12:43:35.653Z,99994.88
2022-12-26T12:45:01.275Z,99995.13
2022-12-26T12:46:22.737Z,99994.31
2022-12-26T12:47:36.573Z,99990.75
2022-12-26T12:48:50.549Z,99997.69
2022-12-26T12:50:26.196Z,99999.59
2022-12-26T12:51:45.449Z,99997.69
2022-12-26T12:53:30.603Z,100005.13
2022-12-26T12:55:10.111Z,100002.66
2022-12-26T12:56:31.338Z,100047.28
2022-12-26T12:57:42.433Z,100063.06
2022-12-26T12:59:00.332Z,100064.72
2022-12-26T13:00:13.937Z,100091.63
2022-12-26T13:01:21.882Z,100081.09
2022-12-26T13:02:53.738Z,100090.22
2022-12-26T13:04:14.182Z,100109.63
2022-12-26T13:05:28.357Z,100098.84
2022-12-26T13:06:56.743Z,100091.66
2022-12-26T13:08:22.762Z,100107.16
2022-12-26T13:09:43.418Z,100100.81
2022-12-26T13:11:27.893Z,100108.28
2022-12-26T13:12:36.175Z,100110.22
2022-12-26T13:13:53.712Z,100118.25
2022-12-26T13:15:02.459Z,100115.75
2022-12-26T13:16:30.946Z,100122.09
2022-12-26T13:17:48.443Z,100118.53
2022-12-26T13:19:05.074Z,100114.94
2022-12-26T13:20:30.841Z,100119.59
2022-12-26T13:21:37.710Z,100123.22
2022-12-26T13:23:05.783Z,100112.66
2022-12-26T13:24:26.776Z,100117.09
2022-12-26T13:25:41.282Z,100120.72
2022-12-26T13:26:50.396Z,100117.94
2022-12-26T13:28:09.791Z,100121.50
2022-12-26T13:29:27.968Z,100123.97
2022-12-26T13:30:30.149Z,100111.78
2022-12-26T13:31:34.716Z,100106.00
2022-12-26T13:32:38.757Z,100114.53
2022-12-26T13:33:44.545Z,100111.50
2022-12-26T13:34:47.435Z,100112.00
2022-12-26T13:35:59.087Z,100117.00
2022-12-26T13:37:01.320Z,100115.84
2022-12-26T13:38:03.554Z,100114.22
2022-12-26T13:39:23.892Z,100107.56
2022-12-26T13:40:31.029Z,100110.59
2022-12-26T13:41:54.122Z,100105.59
2022-12-26T13:43:34.021Z,100106.97
2022-12-26T13:44:40.390Z,100105.88
2022-12-26T13:45:44.806Z,100088.44
2022-12-26T13:46:46.947Z,100092.56
2022-12-26T13:47:49.142Z,100098.38
2022-12-26T13:48:56.994Z,100089.53
2022-12-26T13:50:14.560Z,100088.13
2022-12-26T13:51:43.546Z,100088.66